Time,TemperatureF,DewpointF,PressureIn,WindDirection,WindDirectionDegrees,WindSpeedMPH,WindSpeedGustMPH,Humidity,HourlyPrecipIn,Conditions,Clouds,dailyrainin,SoftwareType,DateUTC
2013-10-11 00:05:00,62.8,60.1,30.00,NE,53,15.0,18.0,91,0.00,,,0.00,Wunderground v.1.15,2013-10-11 04:05:00,
2013-10-11 00:10:00,62.7,60.0,30.00,NE,55,15.0,16.0,91,0.00,,,0.00,Wunderground v.1.15,2013-10-11 04:10:00,
2013-10-11 00:15:00,62.8,60.1,30.00,ENE,64,15.0,16.0,91,0.00,,,0.00,Wunderground v.1.15,2013-10-11 04:15:00,
2013-10-11 00:20:00,62.8,60.1,30.00,ENE,63,15.0,15.0,91,0.00,,,0.00,Wunderground v.1.15,2013-10-11 04:20:00,
2013-10-11 00:25:00,62.8,60.1,30.00,ENE,66,15.0,19.0,91,0.00,,,0.00,Wunderground v.1.15,2013-10-11 04:25:00,
2013-10-11 00:30:00,62.8,60.1,30.00,ENE,76,15.0,15.0,91,0.00,,,0.00,Wunderground v.1.15,2013-10-11 04:30:00,
2013-10-11 00:35:00,62.9,60.2,30.00,ENE,69,15.0,18.0,91,0.00,,,0.00,Wunderground v.1.15,2013-10-11 04:35:00,
2013-10-11 00:40:00,62.9,60.2,30.00,NE,41,15.0,15.0,91,0.00,,,0.00,Wunderground v.1.15,2013-10-11 04:40:00,
2013-10-11 00:45:00,62.9,60.2,30.00,ENE,64,15.0,15.0,91,0.00,,,0.00,Wunderground v.1.15,2013-10-11 04:45:00,
2013-10-11 00:50:00,62.9,60.2,29.99,ENE,61,15.0,18.0,91,0.00,,,0.00,Wunderground v.1.15,2013-10-11 04:50:00,
2013-10-11 01:00:00,62.9,60.2,29.99,NE,54,14.0,19.0,91,0.00,,,0.00,Wunderground v.1.15,2013-10-11 05:00:00,
2013-10-11 01:05:00,62.9,60.2,29.99,ENE,66,14.0,19.0,91,0.00,,,0.00,Wunderground v.1.15,2013-10-11 05:05:00,
2013-10-11 01:15:00,62.9,60.2,29.98,ENE,61,15.0,16.0,91,0.00,,,0.00,Wunderground v.1.15,2013-10-11 05:15:00,
2013-10-11 01:20:00,62.9,60.2,29.98,ENE,61,15.0,19.0,91,0.00,,,0.00,Wunderground v.1.15,2013-10-11 05:20:00,
2013-10-11 01:25:00,62.9,60.2,29.99,NE,54,17.0,19.0,91,0.00,,,0.00,Wunderground v.1.15,2013-10-11 05:25:00,
2013-10-11 01:30:00,62.9,60.2,29.98,ENE,72,17.0,17.0,91,0.00,,,0.00,Wunderground v.1.15,2013-10-11 05:30:00,
2013-10-11 01:35:00,62.9,60.2,29.99,NE,56,17.0,19.0,91,0.00,,,0.00,Wunderground v.1.15,2013-10-11 05:35:00,
2013-10-11 01:40:00,62.8,60.1,29.99,ENE,58,16.0,16.0,91,0.00,,,0.00,Wunderground v.1.15,2013-10-11 05:40:00,
2013-10-11 01:50:00,62.9,60.2,29.98,NE,44,15.0,15.0,91,0.00,,,0.00,Wunderground v.1.15,2013-10-11 05:50:00,
2013-10-11 01:55:00,62.8,60.1,29.98,ENE,67,16.0,16.0,91,0.00,,,0.00,Wunderground v.1.15,2013-10-11 05:55:00,
2013-10-11 02:00:00,62.8,60.1,29.98,NE,48,17.0,17.0,91,0.00,,,0.00,Wunderground v.1.15,2013-10-11 06:00:00,
2013-10-11 02:10:00,62.7,60.3,29.98,ENE,61,13.0,21.0,92,0.00,,,0.00,Wunderground v.1.15,2013-10-11 06:10:00,
2013-10-11 02:15:00,62.8,60.4,29.98,ENE,60,15.0,21.0,92,0.00,,,0.00,Wunderground v.1.15,2013-10-11 06:15:00,
2013-10-11 02:25:00,62.6,60.2,29.98,ENE,67,16.0,16.0,92,0.00,,,0.00,Wunderground v.1.15,2013-10-11 06:25:00,
2013-10-11 02:30:00,62.6,60.2,29.97,NE,53,15.0,17.0,92,0.00,,,0.00,Wunderground v.1.15,2013-10-11 06:30:00,
2013-10-11 02:35:00,62.5,60.1,29.97,NE,55,14.0,17.0,92,0.00,,,0.00,Wunderground v.1.15,2013-10-11 06:35:00,
2013-10-11 02:40:00,62.5,60.1,29.98,ENE,58,14.0,14.0,92,0.00,,,0.00,Wunderground v.1.15,2013-10-11 06:40:00,
2013-10-11 02:45:00,62.5,60.1,29.97,ENE,75,14.0,14.0,92,0.00,,,0.00,Wunderground v.1.15,2013-10-11 06:45:00,
2013-10-11 02:55:00,62.6,60.2,29.97,NE,49,15.0,15.0,92,0.00,,,0.00,Wunderground v.1.15,2013-10-11 06:55:00,
2013-10-11 03:00:00,62.7,60.3,29.97,NE,49,14.0,14.0,92,0.00,,,0.00,Wunderground v.1.15,2013-10-11 07:00:00,
2013-10-11 03:05:00,62.7,60.3,29.96,NE,53,14.0,14.0,92,0.00,,,0.00,Wunderground v.1.15,2013-10-11 07:05:00,
2013-10-11 03:10:00,62.7,60.3,29.96,ENE,64,14.0,14.0,92,0.00,,,0.00,Wunderground v.1.15,2013-10-11 07:10:00,
2013-10-11 03:20:00,62.8,60.4,29.96,NE,53,15.0,17.0,92,0.00,,,0.00,Wunderground v.1.15,2013-10-11 07:20:00,
2013-10-11 03:30:00,62.7,60.3,29.96,ENE,75,15.0,15.0,92,0.00,,,0.00,Wunderground v.1.15,2013-10-11 07:30:00,
2013-10-11 03:35:00,62.7,60.3,29.96,East,79,14.0,18.0,92,0.00,,,0.00,Wunderground v.1.15,2013-10-11 07:35:00,
2013-10-11 03:40:00,62.8,60.4,29.96,ENE,70,15.0,15.0,92,0.00,,,0.00,Wunderground v.1.15,2013-10-11 07:40:00,
2013-10-11 03:45:00,62.8,60.4,29.96,NE,54,15.0,20.0,92,0.00,,,0.00,Wunderground v.1.15,2013-10-11 07:45:00,
2013-10-11 03:50:00,62.8,60.4,29.96,NE,47,14.0,14.0,92,0.00,,,0.00,Wunderground v.1.15,2013-10-11 07:50:00,
2013-10-11 03:55:00,62.8,60.4,29.96,ENE,57,14.0,15.0,92,0.00,,,0.00,Wunderground v.1.15,2013-10-11 07:55:00,
2013-10-11 04:05:00,62.8,60.4,29.96,ENE,61,14.0,18.0,92,0.00,,,0.00,Wunderground v.1.15,2013-10-11 08:05:00,
2013-10-11 04:10:00,62.8,60.4,29.95,ENE,69,14.0,18.0,92,0.00,,,0.00,Wunderground v.1.15,2013-10-11 08:10:00,
2013-10-11 04:15:00,62.8,60.4,29.96,NE,41,14.0,18.0,92,0.00,,,0.00,Wunderground v.1.15,2013-10-11 08:15:00,
2013-10-11 04:20:00,62.7,60.3,29.96,ENE,64,14.0,15.0,92,0.00,,,0.00,Wunderground v.1.15,2013-10-11 08:20:00,
2013-10-11 04:30:00,62.6,60.5,29.96,ENE,75,16.0,21.0,93,0.00,,,0.00,Wunderground v.1.15,2013-10-11 08:30:00,
2013-10-11 04:40:00,62.6,60.5,29.96,NE,47,15.0,15.0,93,0.00,,,0.00,Wunderground v.1.15,2013-10-11 08:40:00,
2013-10-11 04:45:00,62.6,60.5,29.96,East,79,15.0,15.0,93,0.00,,,0.00,Wunderground v.1.15,2013-10-11 08:45:00,
2013-10-11 04:50:00,62.7,60.6,29.96,ENE,58,13.0,14.0,93,0.00,,,0.00,Wunderground v.1.15,2013-10-11 08:50:00,
2013-10-11 04:55:00,62.6,60.5,29.96,ENE,58,14.0,14.0,93,0.00,,,0.00,Wunderground v.1.15,2013-10-11 08:55:00,
2013-10-11 05:00:00,62.6,60.5,29.96,ENE,72,15.0,16.0,93,0.00,,,0.00,Wunderground v.1.15,2013-10-11 09:00:00,
2013-10-11 05:10:00,62.6,60.5,29.97,NE,53,14.0,19.0,93,0.00,,,0.00,Wunderground v.1.15,2013-10-11 09:10:00,
2013-10-11 05:15:00,62.5,60.4,29.96,ENE,58,15.0,23.0,93,0.00,,,0.00,Wunderground v.1.15,2013-10-11 09:15:00,
2013-10-11 05:20:00,62.6,60.5,29.96,ENE,58,15.0,17.0,93,0.00,,,0.00,Wunderground v.1.15,2013-10-11 09:20:00,
2013-10-11 05:25:00,62.6,60.5,29.96,NE,46,15.0,18.0,93,0.00,,,0.00,Wunderground v.1.15,2013-10-11 09:25:00,
2013-10-11 05:30:00,62.6,60.5,29.97,ENE,58,15.0,15.0,93,0.00,,,0.00,Wunderground v.1.15,2013-10-11 09:30:00,
2013-10-11 05:40:00,62.6,60.8,29.97,ENE,78,14.0,18.0,94,0.00,,,0.00,Wunderground v.1.15,2013-10-11 09:40:00,
2013-10-11 05:50:00,62.5,60.7,29.97,ENE,75,14.0,16.0,94,0.00,,,0.00,Wunderground v.1.15,2013-10-11 09:50:00,
2013-10-11 05:55:00,62.5,60.7,29.97,ENE,57,15.0,16.0,94,0.00,,,0.00,Wunderground v.1.15,2013-10-11 09:55:00,
2013-10-11 06:00:00,62.5,60.7,29.97,NE,55,15.0,19.0,94,0.00,,,0.00,Wunderground v.1.15,2013-10-11 10:00:00,
2013-10-11 06:05:00,62.5,60.7,29.97,NE,55,15.0,19.0,94,0.00,,,0.00,Wunderground v.1.15,2013-10-11 10:05:00,
2013-10-11 06:10:00,62.4,60.7,29.97,ENE,70,15.0,15.0,94,0.00,,,0.00,Wunderground v.1.15,2013-10-11 10:10:00,
2013-10-11 06:20:00,62.5,60.7,29.97,East,81,13.0,14.0,94,0.00,,,0.00,Wunderground v.1.15,2013-10-11 10:20:00,
2013-10-11 06:25:00,62.3,60.6,29.98,ENE,68,13.0,14.0,94,0.00,,,0.00,Wunderground v.1.15,2013-10-11 10:25:00,
2013-10-11 06:30:00,62.3,60.6,29.98,ENE,64,14.0,15.0,94,0.00,,,0.00,Wunderground v.1.15,2013-10-11 10:30:00,
2013-10-11 06:35:00,62.4,60.7,29.98,ENE,77,12.0,16.0,94,0.00,,,0.00,Wunderground v.1.15,2013-10-11 10:35:00,
2013-10-11 06:40:00,62.4,60.7,29.98,NE,49,12.0,12.0,94,0.00,,,0.00,Wunderground v.1.15,2013-10-11 10:40:00,
2013-10-11 06:50:00,62.3,60.6,29.98,ENE,70,14.0,19.0,94,0.00,,,0.00,Wunderground v.1.15,2013-10-11 10:50:00,
2013-10-11 07:00:00,62.4,60.7,29.98,East,82,13.0,16.0,94,0.00,,,0.00,Wunderground v.1.15,2013-10-11 11:00:00,
2013-10-11 07:05:00,62.4,60.7,29.98,ENE,64,14.0,16.0,94,0.00,,,0.00,Wunderground v.1.15,2013-10-11 11:05:00,
2013-10-11 07:10:00,62.4,60.7,29.98,ENE,64,14.0,14.0,94,0.00,,,0.00,Wunderground v.1.15,2013-10-11 11:10:00,
2013-10-11 07:15:00,62.3,60.6,29.98,NE,56,15.0,21.0,94,0.00,,,0.00,Wunderground v.1.15,2013-10-11 11:15:00,
2013-10-11 07:25:00,62.4,60.7,29.98,ENE,57,15.0,17.0,94,0.00,,,0.00,Wunderground v.1.15,2013-10-11 11:25:00,
2013-10-11 07:30:00,62.4,60.7,29.98,ENE,78,14.0,14.0,94,0.00,,,0.00,Wunderground v.1.15,2013-10-11 11:30:00,
2013-10-11 07:35:00,62.5,60.7,29.98,East,81,13.0,14.0,94,0.00,,,0.00,Wunderground v.1.15,2013-10-11 11:35:00,
2013-10-11 07:40:00,62.4,60.7,29.98,ENE,67,14.0,14.0,94,0.00,,,0.00,Wunderground v.1.15,2013-10-11 11:40:00,
2013-10-11 07:45:00,62.5,60.7,29.98,ENE,61,14.0,16.0,94,0.00,,,0.00,Wunderground v.1.15,2013-10-11 11:45:00,
2013-10-11 07:50:00,62.5,60.7,29.98,NE,55,14.0,18.0,94,0.00,,,0.00,Wunderground v.1.15,2013-10-11 11:50:00,
2013-10-11 08:00:00,62.5,60.4,29.98,ENE,70,14.0,14.0,93,0.00,,,0.00,Wunderground v.1.15,2013-10-11 12:00:00,
2013-10-11 08:10:00,62.6,60.5,29.98,ENE,69,15.0,17.0,93,0.00,,,0.00,Wunderground v.1.15,2013-10-11 12:10:00,
2013-10-11 08:15:00,62.6,60.5,29.98,ENE,71,15.0,17.0,93,0.00,,,0.00,Wunderground v.1.15,2013-10-11 12:15:00,
2013-10-11 08:20:00,62.6,60.5,29.98,ENE,58,15.0,15.0,93,0.00,,,0.00,Wunderground v.1.15,2013-10-11 12:20:00,
2013-10-11 08:25:00,62.6,60.5,29.98,ENE,75,16.0,16.0,93,0.00,,,0.00,Wunderground v.1.15,2013-10-11 12:25:00,
2013-10-11 08:35:00,62.7,60.6,29.98,ENE,64,16.0,18.0,93,0.00,,,0.00,Wunderground v.1.15,2013-10-11 12:35:00,
2013-10-11 08:40:00,62.8,60.7,29.98,NE,53,16.0,16.0,93,0.00,,,0.00,Wunderground v.1.15,2013-10-11 12:40:00,
2013-10-11 08:45:00,62.7,60.6,29.98,ENE,70,15.0,16.0,93,0.00,,,0.00,Wunderground v.1.15,2013-10-11 12:45:00,
2013-10-11 08:50:00,62.7,60.6,29.98,ENE,61,14.0,14.0,93,0.00,,,0.00,Wunderground v.1.15,2013-10-11 12:50:00,
2013-10-11 08:55:00,62.7,60.6,29.98,ENE,63,12.0,17.0,93,0.00,,,0.00,Wunderground v.1.15,2013-10-11 12:55:00,
2013-10-11 09:05:00,62.8,60.7,29.98,ENE,64,14.0,17.0,93,0.00,,,0.00,Wunderground v.1.15,2013-10-11 13:05:00,
2013-10-11 09:10:00,62.7,60.6,29.98,ENE,57,15.0,20.0,93,0.00,,,0.00,Wunderground v.1.15,2013-10-11 13:10:00,
2013-10-11 09:20:00,62.8,60.7,29.98,NE,39,14.0,14.0,93,0.00,,,0.00,Wunderground v.1.15,2013-10-11 13:20:00,
2013-10-11 09:25:00,62.8,60.7,29.98,NE,55,13.0,14.0,93,0.00,,,0.00,Wunderground v.1.15,2013-10-11 13:25:00,
2013-10-11 09:30:00,62.6,60.5,29.98,ENE,57,14.0,14.0,93,0.00,,,0.00,Wunderground v.1.15,2013-10-11 13:30:00,
2013-10-11 09:40:00,62.2,60.8,29.98,ENE,58,15.0,18.0,95,0.00,,,0.00,Wunderground v.1.15,2013-10-11 13:40:00,
2013-10-11 09:45:00,62.1,60.7,29.99,ENE,64,15.0,18.0,95,0.00,,,0.00,Wunderground v.1.15,2013-10-11 13:45:00,
2013-10-11 09:50:00,62.0,60.6,29.99,ENE,78,14.0,14.0,95,0.00,,,0.00,Wunderground v.1.15,2013-10-11 13:50:00,
2013-10-11 09:55:00,62.0,60.8,29.99,ENE,70,13.0,17.0,96,0.00,,,0.00,Wunderground v.1.15,2013-10-11 13:55:00,
2013-10-11 10:00:00,62.0,60.8,29.99,ENE,67,12.0,12.0,96,0.00,,,0.00,Wunderground v.1.15,2013-10-11 14:00:00,
2013-10-11 10:05:00,62.1,60.9,29.99,ENE,59,12.0,12.0,96,0.00,,,0.00,Wunderground v.1.15,2013-10-11 14:05:00,
2013-10-11 10:15:00,62.1,60.9,29.98,ENE,61,13.0,16.0,96,0.00,,,0.01,Wunderground v.1.15,2013-10-11 14:15:00,
2013-10-11 10:20:00,62.1,60.9,29.99,NE,55,14.0,15.0,96,0.00,,,0.01,Wunderground v.1.15,2013-10-11 14:20:00,
2013-10-11 10:30:00,62.1,60.9,29.99,ENE,57,14.0,16.0,96,0.00,,,0.01,Wunderground v.1.15,2013-10-11 14:30:00,
2013-10-11 10:35:00,62.0,60.8,29.99,East,79,14.0,16.0,96,0.00,,,0.01,Wunderground v.1.15,2013-10-11 14:35:00,
2013-10-11 10:45:00,62.1,60.9,29.99,ENE,58,13.0,14.0,96,0.00,,,0.01,Wunderground v.1.15,2013-10-11 14:45:00,
2013-10-11 10:50:00,62.1,60.9,29.99,NE,43,13.0,19.0,96,0.00,,,0.01,Wunderground v.1.15,2013-10-11 14:50:00,
2013-10-11 11:00:00,62.0,60.8,29.99,ENE,68,14.0,14.0,96,0.00,,,0.02,Wunderground v.1.15,2013-10-11 15:00:00,
2013-10-11 11:05:00,62.0,60.8,29.99,NE,54,14.0,17.0,96,0.00,,,0.02,Wunderground v.1.15,2013-10-11 15:05:00,
2013-10-11 11:10:00,62.0,60.8,29.99,NE,55,15.0,15.0,96,0.00,,,0.02,Wunderground v.1.15,2013-10-11 15:10:00,
2013-10-11 11:15:00,62.0,60.8,29.99,NE,38,15.0,15.0,96,0.00,,,0.02,Wunderground v.1.15,2013-10-11 15:15:00,
2013-10-11 11:25:00,62.2,61.0,29.99,ENE,70,14.0,17.0,96,0.00,,,0.03,Wunderground v.1.15,2013-10-11 15:25:00,
2013-10-11 11:35:00,62.2,61.0,29.99,ENE,76,15.0,15.0,96,0.00,,,0.03,Wunderground v.1.15,2013-10-11 15:35:00,
2013-10-11 11:40:00,62.3,61.1,29.99,NE,46,15.0,16.0,96,0.04,,,0.04,Wunderground v.1.15,2013-10-11 15:40:00,
2013-10-11 11:45:00,62.2,61.0,29.98,NE,55,15.0,16.0,96,0.04,,,0.04,Wunderground v.1.15,2013-10-11 15:45:00,
2013-10-11 11:50:00,62.2,61.0,29.98,NE,41,15.0,15.0,96,0.04,,,0.04,Wunderground v.1.15,2013-10-11 15:50:00,
2013-10-11 12:00:00,62.2,61.0,29.99,NE,44,13.0,15.0,96,0.00,,,0.05,Wunderground v.1.15,2013-10-11 16:00:00,
2013-10-11 12:05:00,62.1,60.9,29.99,NE,53,13.0,15.0,96,0.00,,,0.05,Wunderground v.1.15,2013-10-11 16:05:00,
2013-10-11 12:10:00,62.1,60.9,29.99,ENE,64,13.0,14.0,96,0.00,,,0.05,Wunderground v.1.15,2013-10-11 16:10:00,
2013-10-11 12:15:00,62.2,61.0,29.98,NNE,30,13.0,15.0,96,0.00,,,0.05,Wunderground v.1.15,2013-10-11 16:15:00,
2013-10-11 12:20:00,62.1,60.9,29.98,ENE,61,13.0,13.0,96,0.00,,,0.06,Wunderground v.1.15,2013-10-11 16:20:00,
2013-10-11 12:25:00,62.2,61.0,29.98,ENE,63,12.0,13.0,96,0.00,,,0.06,Wunderground v.1.15,2013-10-11 16:25:00,
2013-10-11 12:35:00,62.2,61.0,29.98,ENE,61,14.0,14.0,96,0.21,,,0.09,Wunderground v.1.15,2013-10-11 16:35:00,
2013-10-11 12:45:00,62.2,61.0,29.98,East,100,13.0,14.0,96,0.14,,,0.12,Wunderground v.1.15,2013-10-11 16:45:00,
2013-10-11 12:50:00,62.2,61.0,29.98,ENE,58,13.0,13.0,96,0.15,,,0.13,Wunderground v.1.15,2013-10-11 16:50:00,
2013-10-11 12:55:00,62.2,61.0,29.97,NE,55,14.0,14.0,96,0.18,,,0.14,Wunderground v.1.15,2013-10-11 16:55:00,
2013-10-11 13:00:00,62.2,61.0,29.97,ENE,68,14.0,14.0,96,0.08,,,0.14,Wunderground v.1.15,2013-10-11 17:00:00,
2013-10-11 13:10:00,62.3,61.1,29.97,ENE,69,12.0,12.0,96,0.04,,,0.15,Wunderground v.1.15,2013-10-11 17:10:00,
2013-10-11 13:15:00,62.3,61.1,29.97,NE,51,11.0,13.0,96,0.04,,,0.15,Wunderground v.1.15,2013-10-11 17:15:00,
2013-10-11 13:20:00,62.2,61.0,29.97,NE,46,12.0,12.0,96,0.07,,,0.16,Wunderground v.1.15,2013-10-11 17:20:00,
2013-10-11 13:25:00,62.2,61.0,29.97,ENE,60,14.0,16.0,96,0.07,,,0.16,Wunderground v.1.15,2013-10-11 17:25:00,
2013-10-11 13:30:00,62.2,61.0,29.97,ENE,62,14.0,14.0,96,0.04,,,0.16,Wunderground v.1.15,2013-10-11 17:30:00,
2013-10-11 13:40:00,62.3,61.1,29.96,NE,51,13.0,13.0,96,0.00,,,0.16,Wunderground v.1.15,2013-10-11 17:40:00,
2013-10-11 13:45:00,62.4,61.2,29.95,ENE,67,13.0,13.0,96,0.00,,,0.17,Wunderground v.1.15,2013-10-11 17:45:00,
2013-10-11 13:55:00,62.5,61.3,29.95,NE,46,15.0,22.0,96,0.00,,,0.17,Wunderground v.1.15,2013-10-11 17:55:00,
2013-10-11 14:00:00,62.6,61.4,29.94,NE,36,15.0,18.0,96,0.04,,,0.18,Wunderground v.1.15,2013-10-11 18:00:00,
2013-10-11 14:05:00,62.7,61.2,29.95,ENE,66,16.0,18.0,95,0.04,,,0.18,Wunderground v.1.15,2013-10-11 18:05:00,
2013-10-11 14:15:00,62.8,61.3,29.96,ENE,61,17.0,17.0,95,0.15,,,0.20,Wunderground v.1.15,2013-10-11 18:15:00,
2013-10-11 14:20:00,62.8,61.3,29.96,ENE,61,15.0,15.0,95,0.31,,,0.22,Wunderground v.1.15,2013-10-11 18:20:00,
2013-10-11 14:25:00,62.7,61.2,29.96,ENE,67,14.0,15.0,95,0.21,,,0.24,Wunderground v.1.15,2013-10-11 18:25:00,
2013-10-11 14:30:00,62.8,61.3,29.96,ENE,58,16.0,16.0,95,0.10,,,0.24,Wunderground v.1.15,2013-10-11 18:30:00,
2013-10-11 14:35:00,63.0,61.2,29.96,ENE,68,16.0,16.0,94,0.05,,,0.24,Wunderground v.1.15,2013-10-11 18:35:00,
2013-10-11 14:40:00,63.1,61.3,29.96,ENE,72,14.0,15.0,94,0.04,,,0.24,Wunderground v.1.15,2013-10-11 18:40:00,
2013-10-11 14:50:00,63.4,61.3,29.96,NE,51,16.0,17.0,93,0.00,,,0.24,Wunderground v.1.15,2013-10-11 18:50:00,
2013-10-11 14:55:00,63.5,61.4,29.96,NE,51,14.0,17.0,93,0.00,,,0.24,Wunderground v.1.15,2013-10-11 18:55:00,
2013-10-11 15:05:00,63.9,61.8,29.96,ENE,58,14.0,15.0,93,0.00,,,0.24,Wunderground v.1.15,2013-10-11 19:05:00,
2013-10-11 15:10:00,64.1,61.7,29.96,NE,54,14.0,16.0,92,0.00,,,0.24,Wunderground v.1.15,2013-10-11 19:10:00,
2013-10-11 15:15:00,64.2,61.8,29.96,ENE,58,14.0,16.0,92,0.00,,,0.24,Wunderground v.1.15,2013-10-11 19:15:00,
2013-10-11 15:20:00,64.3,61.9,29.96,ENE,61,13.0,13.0,92,0.00,,,0.24,Wunderground v.1.15,2013-10-11 19:20:00,
2013-10-11 15:25:00,64.4,62.0,29.96,East,79,13.0,17.0,92,0.00,,,0.24,Wunderground v.1.15,2013-10-11 19:25:00,
2013-10-11 15:30:00,64.6,61.9,29.96,NE,45,13.0,13.0,91,0.00,,,0.24,Wunderground v.1.15,2013-10-11 19:30:00,
2013-10-11 15:35:00,64.6,61.9,29.95,ENE,67,13.0,15.0,91,0.00,,,0.24,Wunderground v.1.15,2013-10-11 19:35:00,
2013-10-11 15:40:00,64.6,61.9,29.96,ENE,76,14.0,19.0,91,0.00,,,0.24,Wunderground v.1.15,2013-10-11 19:40:00,
2013-10-11 15:45:00,64.7,62.0,29.96,ENE,61,15.0,19.0,91,0.00,,,0.24,Wunderground v.1.15,2013-10-11 19:45:00,
2013-10-11 15:55:00,64.5,61.8,29.95,ENE,78,14.0,15.0,91,0.00,,,0.24,Wunderground v.1.15,2013-10-11 19:55:00,
2013-10-11 16:00:00,64.5,61.8,29.95,ENE,75,14.0,14.0,91,0.00,,,0.24,Wunderground v.1.15,2013-10-11 20:00:00,
2013-10-11 16:05:00,64.5,61.8,29.96,NE,55,14.0,16.0,91,0.00,,,0.24,Wunderground v.1.15,2013-10-11 20:05:00,
2013-10-11 16:15:00,64.6,61.9,29.96,NE,51,14.0,15.0,91,0.00,,,0.24,Wunderground v.1.15,2013-10-11 20:15:00,
2013-10-11 16:20:00,64.7,62.0,29.96,NE,47,13.0,13.0,91,0.00,,,0.24,Wunderground v.1.15,2013-10-11 20:20:00,
2013-10-11 16:30:00,64.9,61.9,29.97,ENE,61,14.0,14.0,90,0.00,,,0.24,Wunderground v.1.15,2013-10-11 20:30:00,
2013-10-11 16:35:00,65.0,62.0,29.97,NE,51,13.0,14.0,90,0.00,,,0.24,Wunderground v.1.15,2013-10-11 20:35:00,
2013-10-11 16:40:00,65.1,62.1,29.97,NE,53,13.0,13.0,90,0.00,,,0.24,Wunderground v.1.15,2013-10-11 20:40:00,
2013-10-11 16:45:00,65.1,61.8,29.97,ENE,67,12.0,13.0,89,0.00,,,0.24,Wunderground v.1.15,2013-10-11 20:45:00,
2013-10-11 16:50:00,65.1,62.1,29.98,ENE,61,12.0,12.0,90,0.00,,,0.25,Wunderground v.1.15,2013-10-11 20:50:00,
2013-10-11 17:00:00,64.9,61.9,29.98,East,100,11.0,13.0,90,0.00,,,0.25,Wunderground v.1.15,2013-10-11 21:00:00,
2013-10-11 17:10:00,64.8,61.8,29.99,ENE,75,11.0,12.0,90,0.04,,,0.26,Wunderground v.1.15,2013-10-11 21:10:00,
2013-10-11 17:15:00,64.8,61.8,29.99,East,95,11.0,15.0,90,0.04,,,0.26,Wunderground v.1.15,2013-10-11 21:15:00,
2013-10-11 17:20:00,64.8,61.8,29.99,NE,51,11.0,19.0,90,0.05,,,0.27,Wunderground v.1.15,2013-10-11 21:20:00,
2013-10-11 17:25:00,64.7,61.7,29.98,ENE,61,12.0,19.0,90,0.07,,,0.28,Wunderground v.1.15,2013-10-11 21:25:00,
2013-10-11 17:30:00,64.5,61.5,29.98,ENE,61,14.0,14.0,90,0.07,,,0.28,Wunderground v.1.15,2013-10-11 21:30:00,
2013-10-11 17:35:00,64.3,61.6,29.97,ENE,64,15.0,18.0,91,0.31,,,0.30,Wunderground v.1.15,2013-10-11 21:35:00,
2013-10-11 17:45:00,63.9,61.5,29.97,ENE,58,16.0,18.0,92,0.25,,,0.34,Wunderground v.1.15,2013-10-11 21:45:00,
2013-10-11 17:50:00,63.7,61.6,29.97,ENE,69,17.0,21.0,93,0.21,,,0.36,Wunderground v.1.15,2013-10-11 21:50:00,
2013-10-11 17:55:00,63.7,61.6,29.97,ENE,75,17.0,21.0,93,0.07,,,0.36,Wunderground v.1.15,2013-10-11 21:55:00,
2013-10-11 18:00:00,63.7,61.6,29.97,ENE,72,16.0,19.0,93,0.06,,,0.37,Wunderground v.1.15,2013-10-11 22:00:00,
2013-10-11 18:10:00,63.9,61.5,29.98,ENE,66,16.0,16.0,92,0.08,,,0.38,Wunderground v.1.15,2013-10-11 22:10:00,
2013-10-11 18:20:00,64.2,61.5,29.98,ENE,72,15.0,15.0,91,0.10,,,0.40,Wunderground v.1.15,2013-10-11 22:20:00,
2013-10-11 18:25:00,64.3,61.6,29.98,ENE,66,15.0,15.0,91,0.09,,,0.40,Wunderground v.1.15,2013-10-11 22:25:00,
2013-10-11 18:30:00,64.3,61.6,29.98,East,88,14.0,14.0,91,0.08,,,0.41,Wunderground v.1.15,2013-10-11 22:30:00,
2013-10-11 18:35:00,64.3,61.6,29.98,ENE,75,14.0,19.0,91,0.07,,,0.42,Wunderground v.1.15,2013-10-11 22:35:00,
2013-10-11 18:40:00,64.3,61.6,29.98,ENE,67,15.0,16.0,91,0.19,,,0.43,Wunderground v.1.15,2013-10-11 22:40:00,
2013-10-11 18:50:00,64.4,61.4,29.98,East,84,16.0,16.0,90,0.10,,,0.45,Wunderground v.1.15,2013-10-11 22:50:00,
2013-10-11 18:55:00,64.5,61.2,29.98,East,81,16.0,16.0,89,0.06,,,0.45,Wunderground v.1.15,2013-10-11 22:55:00,
2013-10-11 19:00:00,64.7,61.4,29.98,ENE,76,16.0,20.0,89,0.04,,,0.45,Wunderground v.1.15,2013-10-11 23:00:00,
2013-10-11 19:05:00,64.7,61.4,29.98,ENE,77,16.0,20.0,89,0.00,,,0.45,Wunderground v.1.15,2013-10-11 23:05:00,
2013-10-11 19:10:00,64.7,61.1,29.99,ENE,72,17.0,17.0,88,0.00,,,0.45,Wunderground v.1.15,2013-10-11 23:10:00,
2013-10-11 19:20:00,64.6,61.3,29.99,ENE,78,14.0,15.0,89,0.00,,,0.45,Wunderground v.1.15,2013-10-11 23:20:00,
2013-10-11 19:30:00,64.8,61.5,29.99,East,101,15.0,16.0,89,0.00,,,0.46,Wunderground v.1.15,2013-10-11 23:30:00,
2013-10-11 19:35:00,65.0,61.4,29.99,ENE,67,16.0,17.0,88,0.00,,,0.46,Wunderground v.1.15,2013-10-11 23:35:00,
2013-10-11 19:40:00,65.1,61.5,29.99,ENE,70,16.0,16.0,88,0.00,,,0.46,Wunderground v.1.15,2013-10-11 23:40:00,
2013-10-11 19:45:00,65.1,61.5,30.00,East,97,14.0,16.0,88,0.00,,,0.46,Wunderground v.1.15,2013-10-11 23:45:00,
2013-10-11 19:50:00,65.1,61.1,30.00,ENE,75,14.0,14.0,87,0.00,,,0.46,Wunderground v.1.15,2013-10-11 23:50:00,
2013-10-11 20:00:00,65.1,61.1,30.00,ENE,58,14.0,17.0,87,0.00,,,0.46,Wunderground v.1.15,2013-10-12 00:00:00,
2013-10-11 20:05:00,65.1,61.1,30.01,East,94,14.0,18.0,87,0.00,,,0.46,Wunderground v.1.15,2013-10-12 00:05:00,
2013-10-11 20:10:00,65.1,61.1,30.01,East,101,14.0,15.0,87,0.00,,,0.46,Wunderground v.1.15,2013-10-12 00:10:00,
2013-10-11 20:15:00,65.1,61.1,30.01,ENE,75,14.0,15.0,87,0.00,,,0.46,Wunderground v.1.15,2013-10-12 00:15:00,
2013-10-11 20:20:00,65.0,61.0,30.01,NE,51,13.0,13.0,87,0.00,,,0.46,Wunderground v.1.15,2013-10-12 00:20:00,
2013-10-11 20:30:00,65.1,61.1,30.01,ENE,67,13.0,13.0,87,0.00,,,0.46,Wunderground v.1.15,2013-10-12 00:30:00,
2013-10-11 20:40:00,65.1,61.5,30.01,ENE,75,12.0,15.0,88,0.00,,,0.46,Wunderground v.1.15,2013-10-12 00:40:00,
2013-10-11 20:45:00,65.1,61.1,30.02,East,93,11.0,15.0,87,0.00,,,0.46,Wunderground v.1.15,2013-10-12 00:45:00,
2013-10-11 20:50:00,65.2,61.2,30.02,East,101,11.0,17.0,87,0.00,,,0.46,Wunderground v.1.15,2013-10-12 00:50:00,
2013-10-11 20:55:00,65.2,61.2,30.02,ENE,67,12.0,17.0,87,0.00,,,0.46,Wunderground v.1.15,2013-10-12 00:55:00,
2013-10-11 21:05:00,65.3,61.0,30.02,East,96,12.0,17.0,86,0.00,,,0.46,Wunderground v.1.15,2013-10-12 01:05:00,
2013-10-11 21:10:00,65.3,61.0,30.03,East,79,12.0,19.0,86,0.00,,,0.46,Wunderground v.1.15,2013-10-12 01:10:00,
2013-10-11 21:15:00,65.4,61.1,30.03,ENE,64,13.0,19.0,86,0.00,,,0.46,Wunderground v.1.15,2013-10-12 01:15:00,
2013-10-11 21:20:00,65.3,61.0,30.03,ENE,78,13.0,13.0,86,0.00,,,0.46,Wunderground v.1.15,2013-10-12 01:20:00,
2013-10-11 21:25:00,65.2,60.9,30.03,ENE,60,11.0,13.0,86,0.00,,,0.46,Wunderground v.1.15,2013-10-12 01:25:00,
2013-10-11 21:30:00,65.2,60.9,30.03,ENE,70,11.0,14.0,86,0.00,,,0.46,Wunderground v.1.15,2013-10-12 01:30:00,
2013-10-11 21:40:00,65.2,60.9,30.03,ENE,64,11.0,11.0,86,0.00,,,0.46,Wunderground v.1.15,2013-10-12 01:40:00,
2013-10-11 21:50:00,65.1,60.8,30.03,ENE,78,11.0,11.0,86,0.00,,,0.46,Wunderground v.1.15,2013-10-12 01:50:00,
2013-10-11 21:55:00,65.1,60.8,30.03,NE,56,12.0,12.0,86,0.00,,,0.46,Wunderground v.1.15,2013-10-12 01:55:00,
2013-10-11 22:00:00,65.1,60.8,30.04,ENE,72,12.0,15.0,86,0.00,,,0.46,Wunderground v.1.15,2013-10-12 02:00:00,
2013-10-11 22:05:00,65.1,60.8,30.03,ENE,75,11.0,15.0,86,0.00,,,0.46,Wunderground v.1.15,2013-10-12 02:05:00,
2013-10-11 22:15:00,65.0,60.7,30.03,ENE,66,12.0,19.0,86,0.00,,,0.46,Wunderground v.1.15,2013-10-12 02:15:00,
2013-10-11 22:20:00,65.0,60.7,30.03,East,87,12.0,14.0,86,0.00,,,0.46,Wunderground v.1.15,2013-10-12 02:20:00,
2013-10-11 22:25:00,65.0,60.7,30.03,ENE,70,14.0,14.0,86,0.00,,,0.46,Wunderground v.1.15,2013-10-12 02:25:00,
2013-10-11 22:30:00,65.0,60.7,30.03,ENE,78,13.0,13.0,86,0.00,,,0.46,Wunderground v.1.15,2013-10-12 02:30:00,
2013-10-11 22:35:00,64.9,60.9,30.03,ENE,61,12.0,13.0,87,0.00,,,0.46,Wunderground v.1.15,2013-10-12 02:35:00,
2013-10-11 22:45:00,64.7,60.7,30.02,ENE,69,13.0,15.0,87,0.00,,,0.46,Wunderground v.1.15,2013-10-12 02:45:00,
2013-10-11 22:55:00,64.6,61.0,30.01,East,85,12.0,17.0,88,0.00,,,0.46,Wunderground v.1.15,2013-10-12 02:55:00,
2013-10-11 23:00:00,64.5,60.9,30.01,ENE,72,13.0,20.0,88,0.00,,,0.46,Wunderground v.1.15,2013-10-12 03:00:00,
2013-10-11 23:05:00,64.2,60.6,30.01,ENE,70,14.0,20.0,88,0.00,,,0.46,Wunderground v.1.15,2013-10-12 03:05:00,
2013-10-11 23:10:00,64.0,60.7,30.01,ENE,61,14.0,14.0,89,0.00,,,0.46,Wunderground v.1.15,2013-10-12 03:10:00,
2013-10-11 23:20:00,63.9,60.6,30.02,ENE,67,12.0,16.0,89,0.00,,,0.46,Wunderground v.1.15,2013-10-12 03:20:00,
2013-10-11 23:25:00,63.9,60.6,30.02,ENE,62,11.0,16.0,89,0.00,,,0.46,Wunderground v.1.15,2013-10-12 03:25:00,
2013-10-11 23:30:00,63.9,60.6,30.02,ENE,70,12.0,12.0,89,0.00,,,0.46,Wunderground v.1.15,2013-10-12 03:30:00,
2013-10-11 23:35:00,63.8,60.5,30.02,NE,41,11.0,12.0,89,0.00,,,0.46,Wunderground v.1.15,2013-10-12 03:35:00,
2013-10-11 23:40:00,63.9,60.6,30.02,ENE,65,11.0,11.0,89,0.00,,,0.46,Wunderground v.1.15,2013-10-12 03:40:00,
2013-10-11 23:45:00,63.9,60.6,30.02,NE,56,11.0,13.0,89,0.00,,,0.46,Wunderground v.1.15,2013-10-12 03:45:00,
2013-10-11 23:55:00,63.9,60.6,30.02,ENE,60,11.0,11.0,89,0.00,,,0.46,Wunderground v.1.15,2013-10-12 03:55:00,